createdAt,value
2023-01-29T00:00:53.858Z,4.86
2023-01-29T00:01:53.858Z,4.86
2023-01-29T00:02:53.845Z,4.87
2023-01-29T00:03:53.858Z,4.84
2023-01-29T00:04:53.859Z,4.8
2023-01-29T00:05:53.858Z,4.78
2023-01-29T00:06:53.844Z,4.77
2023-01-29T00:07:53.907Z,4.76
2023-01-29T00:08:53.860Z,4.77
2023-01-29T00:09:53.844Z,4.78
2023-01-29T00:10:53.845Z,4.8
2023-01-29T00:11:53.858Z,4.81
2023-01-29T00:12:53.859Z,4.81
2023-01-29T00:13:53.845Z,4.81
2023-01-29T00:14:53.859Z,4.82
2023-01-29T00:15:53.859Z,4.83
2023-01-29T00:17:53.845Z,4.86
2023-01-29T00:18:53.858Z,4.85
2023-01-29T00:19:53.859Z,4.86
2023-01-29T00:20:53.859Z,4.86
2023-01-29T00:21:53.846Z,4.88
2023-01-29T00:22:53.859Z,4.89
2023-01-29T00:23:53.859Z,4.91
2023-01-29T00:24:53.859Z,4.92
2023-01-29T00:25:53.846Z,4.89
2023-01-29T00:26:53.860Z,4.86
2023-01-29T00:27:53.860Z,4.82
2023-01-29T00:28:53.845Z,4.8
2023-01-29T00:29:53.846Z,4.78
2023-01-29T00:30:53.860Z,4.77
2023-01-29T00:31:53.860Z,4.78
2023-01-29T00:32:53.846Z,4.81
2023-01-29T00:34:03.183Z,4.8
2023-01-29T00:34:53.860Z,4.78
2023-01-29T00:35:53.859Z,4.78
2023-01-29T00:36:53.846Z,4.77
2023-01-29T00:37:53.859Z,4.73
2023-01-29T00:38:53.860Z,4.76
2023-01-29T00:39:53.860Z,4.8
2023-01-29T00:40:53.846Z,4.86
2023-01-29T00:41:53.861Z,4.9
2023-01-29T00:42:53.863Z,4.94
2023-01-29T00:43:53.860Z,4.96
2023-01-29T00:44:53.847Z,4.92
2023-01-29T00:45:53.861Z,4.88
2023-01-29T00:46:53.862Z,4.82
2023-01-29T00:47:53.861Z,4.8
2023-01-29T00:48:53.847Z,4.77
2023-01-29T00:49:53.861Z,4.71
2023-01-29T00:50:53.861Z,4.67
2023-01-29T00:51:53.847Z,4.63
2023-01-29T00:52:53.846Z,4.61
2023-01-29T00:53:53.861Z,4.63
2023-01-29T00:54:53.862Z,4.66
2023-01-29T00:55:53.845Z,4.67
2023-01-29T00:56:53.861Z,4.69
2023-01-29T00:57:53.861Z,4.71
2023-01-29T00:58:53.861Z,4.73
2023-01-29T00:59:53.847Z,4.77
2023-01-29T01:00:53.861Z,4.78
2023-01-29T01:01:53.862Z,4.8
2023-01-29T01:02:53.861Z,4.84
2023-01-29T01:03:53.848Z,4.85
2023-01-29T01:04:53.862Z,4.85
2023-01-29T01:05:53.862Z,4.86
2023-01-29T01:06:53.861Z,4.88
2023-01-29T01:07:53.848Z,4.88
2023-01-29T01:08:53.862Z,4.89
2023-01-29T01:09:53.862Z,4.9
2023-01-29T01:10:53.875Z,4.91
2023-01-29T01:11:53.848Z,4.87
2023-01-29T01:12:53.862Z,4.85
2023-01-29T01:13:53.862Z,4.85
2023-01-29T01:14:53.848Z,4.84
2023-01-29T01:15:53.849Z,4.8
2023-01-29T01:16:53.862Z,4.75
2023-01-29T01:17:53.862Z,4.71
2023-01-29T01:18:53.848Z,4.69
2023-01-29T01:19:53.862Z,4.66
2023-01-29T01:20:53.863Z,4.62
2023-01-29T01:21:53.862Z,4.62
2023-01-29T01:22:53.848Z,4.63
2023-01-29T01:23:53.863Z,4.63
2023-01-29T01:24:53.863Z,4.63
2023-01-29T01:25:53.862Z,4.62
2023-01-29T01:26:53.849Z,4.58
2023-01-29T01:28:53.863Z,4.41
2023-01-29T01:29:53.863Z,4.4
2023-01-29T01:30:53.849Z,4.42
2023-01-29T01:31:53.926Z,4.46
2023-01-29T01:32:53.863Z,4.54
2023-01-29T01:33:53.849Z,4.61
2023-01-29T01:34:53.850Z,4.66
2023-01-29T01:35:53.863Z,4.67
2023-01-29T01:36:53.864Z,4.71
2023-01-29T01:37:53.849Z,4.73
2023-01-29T01:38:53.864Z,4.76
2023-01-29T01:39:53.864Z,4.78
2023-01-29T01:40:53.863Z,4.8
2023-01-29T01:41:53.849Z,4.8
2023-01-29T01:42:53.864Z,4.77
2023-01-29T01:43:53.864Z,4.69
2023-01-29T01:44:53.863Z,4.67
2023-01-29T01:45:53.850Z,4.64
2023-01-29T01:46:53.864Z,4.6
2023-01-29T01:47:53.864Z,4.58
2023-01-29T01:48:53.864Z,4.57
2023-01-29T01:49:53.850Z,4.57
2023-01-29T01:50:53.863Z,4.56
2023-01-29T01:51:53.864Z,4.58
2023-01-29T01:52:53.850Z,4.61
2023-01-29T01:53:53.851Z,4.63
2023-01-29T01:54:53.864Z,4.66
2023-01-29T01:55:53.864Z,4.69
2023-01-29T01:56:53.850Z,4.75
2023-01-29T01:57:53.851Z,4.78
2023-01-29T01:58:53.865Z,4.81
2023-01-29T01:59:53.864Z,4.83
2023-01-29T02:00:53.850Z,4.85
2023-01-29T02:01:53.865Z,4.84
2023-01-29T02:02:53.865Z,4.84
2023-01-29T02:03:53.865Z,4.87
2023-01-29T02:04:53.849Z,4.89
2023-01-29T02:05:53.865Z,4.89
2023-01-29T02:06:53.892Z,4.88
2023-01-29T02:07:53.864Z,4.88
2023-01-29T02:08:53.851Z,4.86
2023-01-29T02:09:53.865Z,4.81
2023-01-29T02:10:53.865Z,4.78
2023-01-29T02:12:03.122Z,4.76
2023-01-29T02:12:53.851Z,4.75
2023-01-29T02:13:53.864Z,4.73
2023-01-29T02:14:53.865Z,4.75
2023-01-29T02:15:53.878Z,4.73
2023-01-29T02:16:53.852Z,4.73
2023-01-29T02:17:53.866Z,4.69
2023-01-29T02:18:53.867Z,4.67
2023-01-29T02:19:53.850Z,4.63
2023-01-29T02:20:53.852Z,4.58
2023-01-29T02:21:53.865Z,4.57
2023-01-29T02:22:53.867Z,4.59
2023-01-29T02:23:53.852Z,4.61
2023-01-29T02:24:53.866Z,4.62
2023-01-29T02:25:53.866Z,4.61
2023-01-29T02:26:53.866Z,4.62
2023-01-29T02:27:53.852Z,4.63
2023-01-29T02:28:53.866Z,4.62
2023-01-29T02:29:53.865Z,4.61
2023-01-29T02:30:53.865Z,4.62
2023-01-29T02:31:53.853Z,4.63
2023-01-29T02:32:53.867Z,4.63
2023-01-29T02:33:53.866Z,4.64
2023-01-29T02:34:53.867Z,4.66
2023-01-29T02:35:53.852Z,4.67
2023-01-29T02:36:53.890Z,4.65
2023-01-29T02:37:53.868Z,4.65
2023-01-29T02:38:53.852Z,4.66
2023-01-29T02:39:53.852Z,4.66
2023-01-29T02:40:53.867Z,4.67
2023-01-29T02:41:53.868Z,4.71
2023-01-29T02:42:53.853Z,4.73
2023-01-29T02:43:53.866Z,4.71
2023-01-29T02:44:53.866Z,4.69
2023-01-29T02:45:53.867Z,4.65
2023-01-29T02:46:53.853Z,4.61
2023-01-29T02:47:53.867Z,4.56
2023-01-29T02:48:53.867Z,4.51
2023-01-29T02:49:53.866Z,4.51
2023-01-29T02:50:53.854Z,4.51
2023-01-29T02:51:53.868Z,4.48
2023-01-29T02:52:53.868Z,4.48
2023-01-29T02:53:53.868Z,4.44
2023-01-29T02:54:53.854Z,4.41
2023-01-29T02:55:53.868Z,4.39
2023-01-29T02:56:53.868Z,4.39
2023-01-29T02:57:53.853Z,4.4
2023-01-29T02:58:53.854Z,4.42
2023-01-29T02:59:53.868Z,4.48
2023-01-29T03:00:53.869Z,4.54
2023-01-29T03:01:53.854Z,4.58
2023-01-29T03:02:53.933Z,4.62
2023-01-29T03:03:53.868Z,4.64
2023-01-29T03:04:53.868Z,4.65
2023-01-29T03:05:53.854Z,4.65
2023-01-29T03:06:59.895Z,4.62
2023-01-29T03:07:53.868Z,4.58
2023-01-29T03:08:53.868Z,4.54
2023-01-29T03:09:53.852Z,4.48
2023-01-29T03:10:53.869Z,4.42
2023-01-29T03:11:53.868Z,4.41
2023-01-29T03:12:53.868Z,4.42
2023-01-29T03:13:53.855Z,4.42
2023-01-29T03:14:53.868Z,4.44
2023-01-29T03:15:53.869Z,4.46
2023-01-29T03:16:53.869Z,4.46
2023-01-29T03:17:53.855Z,4.44
2023-01-29T03:18:53.869Z,4.44
2023-01-29T03:19:53.869Z,4.46
2023-01-29T03:20:53.853Z,4.51
2023-01-29T03:21:53.855Z,4.53
2023-01-29T03:22:53.869Z,4.5
2023-01-29T03:23:53.869Z,4.5
2023-01-29T03:24:53.855Z,4.5
2023-01-29T03:25:53.933Z,4.48
2023-01-29T03:26:53.869Z,4.48
2023-01-29T03:27:53.869Z,4.5
2023-01-29T03:28:53.855Z,4.48
2023-01-29T03:29:53.869Z,4.46
2023-01-29T03:30:53.870Z,4.42
2023-01-29T03:31:53.868Z,4.4
2023-01-29T03:32:53.855Z,4.37
2023-01-29T03:33:53.870Z,4.33
2023-01-29T03:34:53.871Z,4.27
2023-01-29T03:35:53.870Z,4.21
2023-01-29T03:36:53.855Z,4.16
2023-01-29T03:37:53.870Z,4.13
2023-01-29T03:38:53.871Z,4.16
2023-01-29T03:39:53.869Z,4.21
2023-01-29T03:40:53.856Z,4.23
2023-01-29T03:41:53.870Z,4.21
2023-01-29T03:42:53.870Z,4.16
2023-01-29T03:43:53.856Z,4.12
2023-01-29T03:44:53.856Z,4.12
2023-01-29T03:45:53.870Z,4.12
2023-01-29T03:46:53.870Z,4.12
2023-01-29T03:47:53.856Z,4.11
2023-01-29T03:48:53.869Z,4.09
2023-01-29T03:49:53.870Z,4.09
2023-01-29T03:51:03.127Z,4.1
2023-01-29T03:51:53.856Z,4.11
2023-01-29T03:52:53.871Z,4.09
2023-01-29T03:53:53.871Z,4.1
2023-01-29T03:54:53.870Z,4.13
2023-01-29T03:55:53.870Z,4.17
2023-01-29T03:56:53.870Z,4.21
2023-01-29T03:57:53.871Z,4.26
2023-01-29T03:58:53.871Z,4.31
2023-01-29T03:59:53.857Z,4.37
2023-01-29T04:00:53.871Z,4.38
2023-01-29T04:01:53.871Z,4.37
2023-01-29T04:02:53.855Z,4.37
2023-01-29T04:03:53.857Z,4.35
2023-01-29T04:04:53.871Z,4.33
2023-01-29T04:05:53.872Z,4.34
2023-01-29T04:06:57.628Z,4.39
2023-01-29T04:07:53.857Z,4.42
2023-01-29T04:08:53.870Z,4.44
2023-01-29T04:09:53.872Z,4.46
2023-01-29T04:10:53.857Z,4.44
2023-01-29T04:11:53.870Z,4.44
2023-01-29T04:12:53.870Z,4.42
2023-01-29T04:13:53.871Z,4.39
2023-01-29T04:14:53.857Z,4.32
2023-01-29T04:15:53.872Z,4.23
2023-01-29T04:16:53.872Z,4.19
2023-01-29T04:17:53.871Z,4.19
2023-01-29T04:18:53.858Z,4.19
2023-01-29T04:19:53.872Z,4.21
2023-01-29T04:20:53.873Z,4.25
2023-01-29T04:21:53.872Z,4.3
2023-01-29T04:22:53.858Z,4.31
2023-01-29T04:23:53.871Z,4.32
2023-01-29T04:24:53.872Z,4.37
2023-01-29T04:25:53.858Z,4.4
2023-01-29T04:26:53.858Z,4.4
2023-01-29T04:27:53.872Z,4.38
2023-01-29T04:28:53.873Z,4.38
2023-01-29T04:29:53.856Z,4.37
2023-01-29T04:30:53.859Z,4.35
2023-01-29T04:31:53.872Z,4.33
2023-01-29T04:32:53.871Z,4.32
2023-01-29T04:33:53.858Z,4.3
2023-01-29T04:34:53.873Z,4.27
2023-01-29T04:35:53.873Z,4.27
2023-01-29T04:36:53.872Z,4.29
2023-01-29T04:37:53.858Z,4.31
2023-01-29T04:38:53.872Z,4.32
2023-01-29T04:39:53.874Z,4.33
2023-01-29T04:40:53.873Z,4.32
2023-01-29T04:41:53.859Z,4.33
2023-01-29T04:42:53.873Z,4.33
2023-01-29T04:43:53.873Z,4.36
2023-01-29T04:44:53.858Z,4.35
2023-01-29T04:45:53.858Z,4.34
2023-01-29T04:46:53.873Z,4.34
2023-01-29T04:47:53.874Z,4.38
2023-01-29T04:48:53.859Z,4.4
2023-01-29T04:49:53.859Z,4.4
2023-01-29T04:50:53.873Z,4.41
2023-01-29T04:51:53.872Z,4.42
2023-01-29T04:52:53.857Z,4.42
2023-01-29T04:53:53.874Z,4.4
2023-01-29T04:54:53.874Z,4.37
2023-01-29T04:55:53.874Z,4.33
2023-01-29T04:56:53.859Z,4.3
2023-01-29T04:57:53.873Z,4.27
2023-01-29T04:58:53.876Z,4.26
2023-01-29T04:59:53.874Z,4.23
2023-01-29T05:00:53.859Z,4.14
2023-01-29T05:01:53.874Z,4.03
2023-01-29T05:02:53.874Z,3.99
2023-01-29T05:03:53.874Z,3.96
2023-01-29T05:04:53.860Z,3.93
2023-01-29T05:05:53.874Z,3.93
2023-01-29T05:07:02.109Z,3.98
2023-01-29T05:07:53.860Z,4.03
2023-01-29T05:08:53.858Z,4.07
2023-01-29T05:09:53.874Z,4.09
2023-01-29T05:10:53.874Z,4.12
2023-01-29T05:11:53.860Z,4.16
2023-01-29T05:12:53.923Z,4.16
2023-01-29T05:13:53.874Z,4.19
2023-01-29T05:14:53.874Z,4.23
2023-01-29T05:15:53.860Z,4.28
2023-01-29T05:17:02.109Z,4.27
2023-01-29T05:17:53.875Z,4.23
2023-01-29T05:18:53.875Z,4.19
2023-01-29T05:19:53.859Z,4.17
2023-01-29T05:20:53.875Z,4.15
2023-01-29T05:21:53.875Z,4.13
2023-01-29T05:22:53.874Z,4.14
2023-01-29T05:23:53.861Z,4.17
2023-01-29T05:24:53.875Z,4.17
2023-01-29T05:25:53.875Z,4.17
2023-01-29T05:26:53.874Z,4.19
2023-01-29T05:27:53.861Z,4.21
2023-01-29T05:28:53.875Z,4.23
2023-01-29T05:29:53.876Z,4.27
2023-01-29T05:30:53.860Z,4.31
2023-01-29T05:31:53.861Z,4.31
2023-01-29T05:32:53.874Z,4.27
2023-01-29T05:33:53.875Z,4.23
2023-01-29T05:34:53.861Z,4.21
2023-01-29T05:35:53.862Z,4.17
2023-01-29T05:36:53.875Z,4.14
2023-01-29T05:37:53.875Z,4.13
2023-01-29T05:38:53.861Z,4.15
2023-01-29T05:39:53.875Z,4.16
2023-01-29T05:40:53.876Z,4.16
2023-01-29T05:41:53.876Z,4.16
2023-01-29T05:42:53.861Z,4.17
2023-01-29T05:43:53.875Z,4.17
2023-01-29T05:44:53.877Z,4.19
2023-01-29T05:45:53.876Z,4.21
2023-01-29T05:46:53.861Z,4.21
2023-01-29T05:47:53.876Z,4.17
2023-01-29T05:48:53.876Z,4.13
2023-01-29T05:49:53.876Z,4.1
2023-01-29T05:50:53.862Z,4.08
2023-01-29T05:51:53.876Z,4.05
2023-01-29T05:52:53.876Z,4.06
2023-01-29T05:53:53.862Z,4.09
2023-01-29T05:54:53.863Z,4.11
2023-01-29T05:55:53.876Z,4.11
2023-01-29T05:56:53.900Z,4.12
2023-01-29T05:57:53.862Z,4.13
2023-01-29T05:58:53.876Z,4.12
2023-01-29T05:59:53.876Z,4.12
2023-01-29T06:00:53.876Z,4.14
2023-01-29T06:01:53.862Z,4.17
2023-01-29T06:02:53.876Z,4.17
2023-01-29T06:03:53.918Z,4.17
2023-01-29T06:04:53.876Z,4.19
2023-01-29T06:05:53.863Z,4.21
2023-01-29T06:06:53.876Z,4.23
2023-01-29T06:07:53.878Z,4.27
2023-01-29T06:08:53.876Z,4.28
2023-01-29T06:09:53.863Z,4.29
2023-01-29T06:10:53.877Z,4.31
2023-01-29T06:11:53.878Z,4.34
2023-01-29T06:12:53.863Z,4.38
2023-01-29T06:13:53.863Z,4.4
2023-01-29T06:14:53.876Z,4.41
2023-01-29T06:15:53.878Z,4.39
2023-01-29T06:16:53.863Z,4.39
2023-01-29T06:17:53.926Z,4.38
2023-01-29T06:18:53.877Z,4.37
2023-01-29T06:19:53.877Z,4.35
2023-01-29T06:20:53.863Z,4.32
2023-01-29T06:21:53.878Z,4.28
2023-01-29T06:22:53.878Z,4.23
2023-01-29T06:23:53.877Z,4.23
2023-01-29T06:24:53.878Z,4.21
2023-01-29T06:25:53.877Z,4.15
2023-01-29T06:26:53.879Z,4.11
2023-01-29T06:27:53.877Z,4.1
2023-01-29T06:28:53.862Z,4.1
2023-01-29T06:29:53.877Z,4.1
2023-01-29T06:30:53.878Z,4.11
2023-01-29T06:31:53.878Z,4.14
2023-01-29T06:32:53.864Z,4.14
2023-01-29T06:33:53.941Z,4.14
2023-01-29T06:34:53.879Z,4.16
2023-01-29T06:35:53.864Z,4.19
2023-01-29T06:36:53.864Z,4.21
2023-01-29T06:37:53.877Z,4.23
2023-01-29T06:38:53.879Z,4.27
2023-01-29T06:39:53.864Z,4.29
2023-01-29T06:40:53.877Z,4.3
2023-01-29T06:41:53.878Z,4.28
2023-01-29T06:42:53.878Z,4.26
2023-01-29T06:43:53.864Z,4.21
2023-01-29T06:44:53.878Z,4.21
2023-01-29T06:45:53.879Z,4.21
2023-01-29T06:46:53.878Z,4.23
2023-01-29T06:47:53.864Z,4.21
2023-01-29T06:48:53.879Z,4.21
2023-01-29T06:49:53.879Z,4.19
2023-01-29T06:50:53.879Z,4.17
2023-01-29T06:51:53.864Z,4.13
2023-01-29T06:52:53.878Z,4.12
2023-01-29T06:53:53.880Z,4.12
2023-01-29T06:54:53.865Z,4.1
2023-01-29T06:55:53.865Z,4.06
2023-01-29T06:56:53.879Z,4.04
2023-01-29T06:57:53.880Z,4.04
2023-01-29T06:58:53.863Z,4.04
2023-01-29T06:59:53.865Z,4.03
2023-01-29T07:00:53.879Z,4.04
2023-01-29T07:01:53.879Z,4.07
2023-01-29T07:02:53.865Z,4.08
2023-01-29T07:03:53.880Z,4.07
2023-01-29T07:04:53.880Z,4.08
2023-01-29T07:05:53.879Z,4.13
2023-01-29T07:07:03.123Z,4.17
2023-01-29T07:07:53.880Z,4.21
2023-01-29T07:08:53.922Z,4.23
2023-01-29T07:09:53.880Z,4.23
2023-01-29T07:10:53.866Z,4.27
2023-01-29T07:11:53.879Z,4.29
2023-01-29T07:12:53.881Z,4.32
2023-01-29T07:13:53.880Z,4.32
2023-01-29T07:14:53.866Z,4.29
2023-01-29T07:15:53.880Z,4.26
2023-01-29T07:16:53.880Z,4.25
2023-01-29T07:17:53.866Z,4.23
2023-01-29T07:18:53.864Z,4.19
2023-01-29T07:19:53.880Z,4.17
2023-01-29T07:20:53.880Z,4.16
2023-01-29T07:21:53.866Z,4.14
2023-01-29T07:22:53.879Z,4.1
2023-01-29T07:23:53.880Z,4.05
2023-01-29T07:24:53.880Z,4.03
2023-01-29T07:25:53.866Z,4.05
2023-01-29T07:26:53.880Z,4.09
2023-01-29T07:27:53.881Z,4.14
2023-01-29T07:28:53.881Z,4.17
2023-01-29T07:29:53.866Z,4.23
2023-01-29T07:30:53.881Z,4.25
2023-01-29T07:31:53.881Z,4.29
2023-01-29T07:32:53.881Z,4.35
2023-01-29T07:33:53.867Z,4.4
2023-01-29T07:34:53.880Z,4.42
2023-01-29T07:35:53.881Z,4.46
2023-01-29T07:36:53.881Z,4.48
2023-01-29T07:37:53.867Z,4.48
2023-01-29T07:38:53.880Z,4.51
2023-01-29T07:39:53.881Z,4.57
2023-01-29T07:40:53.865Z,4.63
2023-01-29T07:41:53.867Z,4.67
2023-01-29T07:42:53.881Z,4.71
2023-01-29T07:43:53.904Z,4.73
2023-01-29T07:44:53.867Z,4.69
2023-01-29T07:45:53.881Z,4.63
2023-01-29T07:46:53.882Z,4.6
2023-01-29T07:47:53.882Z,4.59
2023-01-29T07:48:53.866Z,4.56
2023-01-29T07:49:53.882Z,4.53
2023-01-29T07:50:53.907Z,4.5
2023-01-29T07:51:53.882Z,4.48
2023-01-29T07:52:53.868Z,4.48
2023-01-29T07:53:53.882Z,4.52
2023-01-29T07:54:53.882Z,4.56
2023-01-29T07:55:53.882Z,4.58
2023-01-29T07:56:53.868Z,4.58
2023-01-29T07:57:53.930Z,4.57
2023-01-29T07:58:53.883Z,4.57
2023-01-29T07:59:53.868Z,4.53
2023-01-29T08:00:53.868Z,4.5
2023-01-29T08:01:53.882Z,4.52
2023-01-29T08:02:53.882Z,4.53
2023-01-29T08:03:53.868Z,4.54
2023-01-29T08:04:53.882Z,4.53
2023-01-29T08:05:53.882Z,4.48
2023-01-29T08:06:53.881Z,4.48
2023-01-29T08:07:53.868Z,4.42
2023-01-29T08:08:53.883Z,4.34
2023-01-29T08:09:53.883Z,4.27
2023-01-29T08:10:53.882Z,4.23
2023-01-29T08:11:53.869Z,4.21
2023-01-29T08:12:53.883Z,4.19
2023-01-29T08:13:53.884Z,4.19
2023-01-29T08:14:53.883Z,4.26
2023-01-29T08:15:53.869Z,4.32
2023-01-29T08:16:53.883Z,4.37
2023-01-29T08:17:53.884Z,4.44
2023-01-29T08:18:53.869Z,4.52
2023-01-29T08:19:53.869Z,4.55
2023-01-29T08:20:53.883Z,4.52
2023-01-29T08:21:53.884Z,4.48
2023-01-29T08:22:53.867Z,4.44
2023-01-29T08:23:53.922Z,4.42
2023-01-29T08:24:53.883Z,4.42
2023-01-29T08:25:53.882Z,4.42
2023-01-29T08:26:53.869Z,4.51
2023-01-29T08:27:53.883Z,4.57
2023-01-29T08:28:53.884Z,4.62
2023-01-29T08:29:53.883Z,4.66
2023-01-29T08:30:53.869Z,4.64
2023-01-29T08:31:53.883Z,4.61
2023-01-29T08:32:53.887Z,4.59
2023-01-29T08:33:53.883Z,4.61
2023-01-29T08:34:53.870Z,4.63
2023-01-29T08:35:53.884Z,4.61
2023-01-29T08:36:53.885Z,4.6
2023-01-29T08:37:53.883Z,4.6
2023-01-29T08:38:53.870Z,4.61
2023-01-29T08:39:53.884Z,4.64
2023-01-29T08:40:53.884Z,4.71
2023-01-29T08:41:53.870Z,4.79
2023-01-29T08:42:53.871Z,4.85
2023-01-29T08:43:53.884Z,4.89
2023-01-29T08:45:03.143Z,4.85
2023-01-29T08:45:53.870Z,4.78
2023-01-29T08:46:53.907Z,4.71
2023-01-29T08:47:53.885Z,4.67
2023-01-29T08:48:53.885Z,4.69
2023-01-29T08:49:53.869Z,4.71
2023-01-29T08:50:53.885Z,4.71
2023-01-29T08:51:53.885Z,4.71
2023-01-29T08:52:53.885Z,4.71
2023-01-29T08:53:53.870Z,4.73
2023-01-29T08:54:53.885Z,4.71
2023-01-29T08:55:53.885Z,4.69
2023-01-29T08:56:53.884Z,4.69
2023-01-29T08:57:53.871Z,4.69
2023-01-29T08:58:53.885Z,4.71
2023-01-29T08:59:53.886Z,4.75
2023-01-29T09:00:53.896Z,4.82
2023-01-29T09:01:53.871Z,4.9
2023-01-29T09:02:53.885Z,4.94
2023-01-29T09:03:53.885Z,4.98
2023-01-29T09:04:53.871Z,5.02
2023-01-29T09:05:53.872Z,5.04
2023-01-29T09:06:53.885Z,5.02
2023-01-29T09:07:53.909Z,5.01
2023-01-29T09:08:53.871Z,5
2023-01-29T09:09:53.885Z,4.96
2023-01-29T09:10:53.886Z,4.96
2023-01-29T09:11:53.885Z,4.96
2023-01-29T09:12:53.871Z,4.96
2023-01-29T09:13:53.886Z,4.98
2023-01-29T09:14:53.911Z,5.01
2023-01-29T09:15:53.886Z,5.03
2023-01-29T09:16:53.871Z,5.06
2023-01-29T09:17:53.886Z,5.07
2023-01-29T09:18:53.886Z,5.09
2023-01-29T09:19:53.885Z,5.09
2023-01-29T09:20:53.873Z,5.08
2023-01-29T09:21:53.886Z,5.03
2023-01-29T09:22:53.887Z,5.01
2023-01-29T09:23:53.872Z,5
2023-01-29T09:24:53.873Z,5.01
2023-01-29T09:25:53.886Z,5.07
2023-01-29T09:26:53.888Z,5.12
2023-01-29T09:27:53.872Z,5.2
2023-01-29T09:28:53.873Z,5.28
2023-01-29T09:29:53.887Z,5.34
2023-01-29T09:30:53.887Z,5.37
2023-01-29T09:31:53.873Z,5.38
2023-01-29T09:32:53.887Z,5.4
2023-01-29T09:33:53.887Z,5.44
2023-01-29T09:34:53.887Z,5.52
2023-01-29T09:35:53.872Z,5.6
2023-01-29T09:36:53.887Z,5.61
2023-01-29T09:37:53.888Z,5.62
2023-01-29T09:38:53.887Z,5.62
2023-01-29T09:39:53.874Z,5.63
2023-01-29T09:40:53.887Z,5.66
2023-01-29T09:41:53.887Z,5.66
2023-01-29T09:42:53.887Z,5.63
2023-01-29T09:43:53.874Z,5.62
2023-01-29T09:44:53.888Z,5.61
2023-01-29T09:45:53.888Z,5.63
2023-01-29T09:46:53.873Z,5.63
2023-01-29T09:47:53.874Z,5.65
2023-01-29T09:48:53.888Z,5.7
2023-01-29T09:49:53.912Z,5.76
2023-01-29T09:50:53.874Z,5.82
2023-01-29T09:51:53.888Z,5.82
2023-01-29T09:52:53.888Z,5.81
2023-01-29T09:53:53.887Z,5.83
2023-01-29T09:54:53.874Z,5.9
2023-01-29T09:55:53.888Z,5.99
2023-01-29T09:56:53.914Z,6.06
2023-01-29T09:57:53.888Z,6.08
2023-01-29T09:58:53.875Z,6.02
2023-01-29T09:59:53.889Z,5.94
2023-01-29T10:00:53.889Z,5.9
2023-01-29T10:01:53.889Z,5.88
2023-01-29T10:02:53.875Z,5.82
2023-01-29T10:03:53.889Z,5.73
2023-01-29T10:04:53.889Z,5.76
2023-01-29T10:05:53.875Z,5.86
2023-01-29T10:06:53.875Z,5.98
2023-01-29T10:07:53.889Z,6.13
2023-01-29T10:08:53.889Z,6.26
2023-01-29T10:09:53.874Z,6.31
2023-01-29T10:10:53.889Z,6.32
2023-01-29T10:11:53.889Z,6.28
2023-01-29T10:12:53.888Z,6.25
2023-01-29T10:13:53.875Z,6.24
2023-01-29T10:14:53.889Z,6.23
2023-01-29T10:15:53.889Z,6.26
2023-01-29T10:16:53.890Z,6.29
2023-01-29T10:17:53.876Z,6.33
2023-01-29T10:18:53.890Z,6.39
2023-01-29T10:19:53.890Z,6.47
2023-01-29T10:20:53.889Z,6.55
2023-01-29T10:21:53.876Z,6.58
2023-01-29T10:22:53.890Z,6.57
2023-01-29T10:24:03.149Z,6.57
2023-01-29T10:24:53.875Z,6.64
2023-01-29T10:25:53.877Z,6.69
2023-01-29T10:26:53.890Z,6.67
2023-01-29T10:27:53.890Z,6.58
2023-01-29T10:28:53.876Z,6.46
2023-01-29T10:29:53.877Z,6.36
2023-01-29T10:30:53.891Z,6.26
2023-01-29T10:31:53.892Z,6.22
2023-01-29T10:32:53.877Z,6.16
2023-01-29T10:33:53.890Z,6.17
2023-01-29T10:34:53.890Z,6.28
2023-01-29T10:35:53.891Z,6.3
2023-01-29T10:36:53.877Z,6.27
2023-01-29T10:37:53.891Z,6.27
2023-01-29T10:38:53.891Z,6.26
2023-01-29T10:39:53.891Z,6.25
2023-01-29T10:40:53.877Z,6.2
2023-01-29T10:41:53.892Z,6.15
2023-01-29T10:42:53.892Z,6.2
2023-01-29T10:43:53.891Z,6.33
2023-01-29T10:44:53.878Z,6.49
2023-01-29T10:45:53.892Z,6.59
2023-01-29T10:46:53.892Z,6.7
2023-01-29T10:47:53.878Z,6.82
2023-01-29T10:48:53.878Z,6.86
2023-01-29T10:49:53.892Z,6.85
2023-01-29T10:50:53.892Z,6.88
2023-01-29T10:51:53.878Z,6.94
2023-01-29T10:52:53.879Z,7.04
2023-01-29T10:53:53.892Z,7.09
2023-01-29T10:54:53.893Z,7.05
2023-01-29T10:55:53.878Z,7.01
2023-01-29T10:56:53.893Z,6.97
2023-01-29T10:57:53.893Z,6.87
2023-01-29T10:58:53.893Z,6.78
2023-01-29T10:59:53.879Z,6.71
2023-01-29T11:00:53.893Z,6.72
2023-01-29T11:01:53.894Z,6.78
2023-01-29T11:02:53.892Z,6.81
2023-01-29T11:03:53.880Z,6.78
2023-01-29T11:04:53.892Z,6.71
2023-01-29T11:05:53.893Z,6.65
2023-01-29T11:06:53.893Z,6.64
2023-01-29T11:07:53.880Z,6.65
2023-01-29T11:08:53.893Z,6.64
2023-01-29T11:09:53.895Z,6.71
2023-01-29T11:10:53.879Z,6.82
2023-01-29T11:11:53.880Z,6.91
2023-01-29T11:12:53.894Z,7.03
2023-01-29T11:13:53.917Z,7.15
2023-01-29T11:14:53.880Z,7.28
2023-01-29T11:15:53.893Z,7.38
2023-01-29T11:16:53.894Z,7.43
2023-01-29T11:17:53.893Z,7.44
2023-01-29T11:18:53.880Z,7.46
2023-01-29T11:19:53.895Z,7.48
2023-01-29T11:20:53.920Z,7.42
2023-01-29T11:21:53.894Z,7.34
2023-01-29T11:22:53.881Z,7.26
2023-01-29T11:23:53.895Z,7.2
2023-01-29T11:24:53.895Z,7.2
2023-01-29T11:25:53.895Z,7.29
2023-01-29T11:26:53.881Z,7.39
2023-01-29T11:27:59.880Z,7.45
2023-01-29T11:28:53.896Z,7.48
2023-01-29T11:29:53.881Z,7.57
2023-01-29T11:30:53.882Z,7.7
2023-01-29T11:31:53.896Z,7.81
2023-01-29T11:32:53.897Z,7.87
2023-01-29T11:33:53.881Z,7.95
2023-01-29T11:34:53.882Z,8
2023-01-29T11:35:53.896Z,8.07
2023-01-29T11:36:53.895Z,8.14
2023-01-29T11:37:53.882Z,8.22
2023-01-29T11:38:53.895Z,8.3
2023-01-29T11:39:53.896Z,8.35
2023-01-29T11:40:53.896Z,8.35
2023-01-29T11:41:53.882Z,8.31
2023-01-29T11:42:53.897Z,8.22
2023-01-29T11:43:53.938Z,8.1
2023-01-29T11:44:53.897Z,8
2023-01-29T11:45:53.883Z,7.91
2023-01-29T11:46:53.896Z,7.82
2023-01-29T11:47:53.898Z,7.78
2023-01-29T11:48:53.897Z,7.8
2023-01-29T11:49:53.883Z,7.84
2023-01-29T11:50:53.907Z,7.75
2023-01-29T11:51:53.898Z,7.6
2023-01-29T11:52:53.883Z,7.56
2023-01-29T11:53:53.883Z,7.58
2023-01-29T11:54:53.898Z,7.62
2023-01-29T11:55:53.899Z,7.62
2023-01-29T11:56:53.883Z,7.6
2023-01-29T11:57:53.897Z,7.53
2023-01-29T11:58:53.898Z,7.51
2023-01-29T11:59:53.898Z,7.54
2023-01-29T12:00:53.884Z,7.58
2023-01-29T12:02:03.157Z,7.57
2023-01-29T12:02:53.899Z,7.52
2023-01-29T12:03:53.899Z,7.51
2023-01-29T12:04:53.884Z,7.53
2023-01-29T12:05:53.899Z,7.52
2023-01-29T12:06:53.900Z,7.54
2023-01-29T12:07:53.899Z,7.58
2023-01-29T12:08:53.885Z,7.66
2023-01-29T12:09:53.900Z,7.7
2023-01-29T12:10:53.900Z,7.75
2023-01-29T12:11:53.900Z,7.75
2023-01-29T12:12:53.886Z,7.75
2023-01-29T12:13:53.900Z,7.72
2023-01-29T12:14:53.900Z,7.7
2023-01-29T12:15:53.885Z,7.69
2023-01-29T12:16:53.886Z,7.66
2023-01-29T12:17:53.900Z,7.62
2023-01-29T12:18:53.900Z,7.66
2023-01-29T12:19:53.886Z,7.76
2023-01-29T12:20:53.901Z,7.93
2023-01-29T12:21:53.900Z,8.2
2023-01-29T12:22:53.900Z,8.49
2023-01-29T12:23:53.887Z,8.58
2023-01-29T12:24:53.900Z,8.59
2023-01-29T12:25:53.901Z,8.53
2023-01-29T12:26:53.900Z,8.37
2023-01-29T12:27:57.651Z,8.22
2023-01-29T12:28:53.902Z,8.1
2023-01-29T12:29:53.902Z,7.98
2023-01-29T12:30:53.901Z,8.01
2023-01-29T12:31:53.887Z,8.18
2023-01-29T12:32:53.901Z,8.34
2023-01-29T12:33:53.902Z,8.49
2023-01-29T12:34:53.902Z,8.56
2023-01-29T12:35:53.888Z,8.54
2023-01-29T12:36:53.902Z,8.51
2023-01-29T12:37:53.903Z,8.47
2023-01-29T12:38:53.888Z,8.43
2023-01-29T12:39:53.888Z,8.38
2023-01-29T12:40:53.903Z,8.3
2023-01-29T12:41:53.904Z,8.25
2023-01-29T12:42:53.888Z,8.25
2023-01-29T12:43:53.903Z,8.22
2023-01-29T12:44:53.903Z,8.22
2023-01-29T12:45:53.902Z,8.2
2023-01-29T12:46:53.889Z,8.21
2023-01-29T12:47:53.903Z,8.18
2023-01-29T12:48:53.903Z,8.05
2023-01-29T12:49:53.904Z,7.86
2023-01-29T12:50:53.889Z,7.73
2023-01-29T12:51:53.904Z,7.63
2023-01-29T12:52:53.904Z,7.6
2023-01-29T12:53:53.904Z,7.62
2023-01-29T12:54:53.891Z,7.68
2023-01-29T12:55:53.905Z,7.75
2023-01-29T12:56:53.906Z,7.76
2023-01-29T12:57:53.890Z,7.74
2023-01-29T12:58:53.890Z,7.72
2023-01-29T12:59:53.905Z,7.64
2023-01-29T13:00:53.905Z,7.55
2023-01-29T13:01:53.890Z,7.45
2023-01-29T13:02:53.891Z,7.34
2023-01-29T13:03:53.905Z,7.29
2023-01-29T13:04:53.904Z,7.27
2023-01-29T13:05:53.891Z,7.25
2023-01-29T13:06:53.906Z,7.2
2023-01-29T13:07:53.906Z,7.18
2023-01-29T13:08:53.906Z,7.19
2023-01-29T13:09:53.891Z,7.17
2023-01-29T13:10:53.906Z,7.14
2023-01-29T13:11:53.907Z,7.14
2023-01-29T13:12:53.906Z,7.18
2023-01-29T13:13:53.892Z,7.23
2023-01-29T13:14:53.906Z,7.27
2023-01-29T13:15:53.908Z,7.35
2023-01-29T13:16:53.906Z,7.42
2023-01-29T13:17:53.892Z,7.41
2023-01-29T13:18:53.907Z,7.36
2023-01-29T13:19:53.907Z,7.34
2023-01-29T13:20:53.892Z,7.36
2023-01-29T13:21:53.892Z,7.35
2023-01-29T13:23:53.908Z,7.33
2023-01-29T13:24:53.893Z,7.34